PILOTS ONLINE: 191    ATC ONLINE: 15

CYYH

Taloyoak Airport

Location

IATA YYH
City Taloyoak
Country  Canada
Latitude 69° 32' 48" N
Longitude 93° 34' 36" W
Elevation 92 ft
Type Medium Airport

Map

Weather

METAR
2014/10/20 02:00
CYYH 200200Z 03017G23KT 10SM -SN DRSN FEW012 BKN210 M07/M09 A2971 RMK SC1CI1 SLP065
TAF
2014/10/19 19:36
TAF 
      AMD TAF 
      AMD CYYH 191934Z 1919/2006 06012KT P6SM -SN FEW012 OVC025 
      TEMPO 1919/2003 1SM -SN OVC012 
     FM200300 03015KT P6SM BKN015 
      TEMPO 2003/2006 BKN025 
      RMK NXT FCST BY 200000Z

Runways

15T/33T 4020 ft / 100 ft

Outbound flights

Callsign Flying to Pilot ATD/STD ETA Aircraft

Inbound flights

Callsign Flying from Pilot ATD ETA Aircraft